Time;durP1;ratioP1;P1;durP2;ratioP2;P2;SDS_P1;SDS_P2;PMS_P1;PMS_P2;Temp;Humidity;BMP_temperature;BMP_pressure;BME280_temperature;BME280_humidity;BME280_pressure;Samples;Min_cycle;Max_cycle;Signal;HPM_P1;HPM_P2
2021/01/18 00:00:29;;;;;;;;;;;0.60;99.90;;;-0.46;94.55;96151.88;10333445;28;1902;-84
2021/01/18 00:05:30;;;;;;;;;;;2.90;99.90;;;-0.43;94.37;96160.25;10343484;28;2269;-83
2021/01/18 00:10:32;;;;;;;;;;;1.60;99.90;;;-0.45;94.70;96161.44;10331752;28;2027;-82
2021/01/18 00:15:34;;;;;;;;;;;1.20;99.90;;;-0.41;94.55;96154.75;10354966;28;2130;-83
2021/01/18 00:20:36;;;;;;;;;;;0.70;99.90;;;-0.37;94.54;96158.66;10352532;28;2374;-84
2021/01/18 00:25:37;;;;;;;;;;;1.10;99.90;;;-0.38;94.03;96159.63;10350757;28;1734;-83
2021/01/18 00:30:39;;;;;;;;;;;1.20;99.90;;;-0.34;93.78;96171.44;10348836;28;2112;-82
2021/01/18 00:35:41;;;;;;;;;;;0.90;99.90;;;-0.30;93.45;96170.06;10354420;28;2294;-81
2021/01/18 00:40:43;;;;;;;;;;;1.10;99.90;;;-0.27;93.16;96172.28;10346363;28;2194;-82
2021/01/18 00:45:44;;;;;;;;;;;0.80;99.90;;;-0.27;92.85;96164.38;10345605;28;2305;-83
2021/01/18 00:50:46;;;;;;;;;;;0.90;99.90;;;-0.27;92.80;96167.00;10339321;28;1750;-83
2021/01/18 00:55:48;;;;;;;;;;;1.60;99.90;;;-0.23;92.89;96178.00;10341982;28;2323;-83
2021/01/18 01:00:50;;;;;;;;;;;2.80;99.90;;;-0.24;92.94;96177.19;10345174;28;2325;-82
2021/01/18 01:05:51;;;;;;;;;;;2.10;99.90;;;-0.22;92.92;96179.63;10325183;28;1806;-84
2021/01/18 01:10:53;;;;;;;;;;;0.80;99.90;;;-0.20;92.05;96182.88;10339291;28;2262;-80
2021/01/18 01:15:57;;;;;;;;;;;2.50;99.90;;;-0.21;92.45;96182.06;10339253;28;2222;-82
2021/01/18 01:20:59;;;;;;;;;;;0.90;99.90;;;-0.20;92.59;96196.91;10348470;28;2349;-83
2021/01/18 01:26:03;;;;;;;;;;;1.80;99.90;;;-0.19;92.21;96188.00;10328524;28;2370;-84
2021/01/18 01:31:05;;;;;;;;;;;0.90;99.90;;;-0.17;91.70;96196.53;10320864;28;2371;-81
2021/01/18 01:36:07;;;;;;;;;;;0.90;99.90;;;-0.15;91.59;96191.88;10334731;28;2239;-84
2021/01/18 01:41:09;;;;;;;;;;;0.90;99.90;;;-0.15;91.64;96193.69;10342256;28;1997;-84
2021/01/18 01:46:11;;;;;;;;;;;1.60;99.90;;;-0.18;91.65;96197.56;10358394;28;2093;-83
2021/01/18 01:51:13;;;;;;;;;;;2.20;99.90;;;-0.16;91.55;96198.16;10368589;28;2230;-84
2021/01/18 01:56:15;;;;;;;;;;;1.60;99.90;;;-0.15;91.72;96202.44;10340172;28;1244;-84
2021/01/18 02:01:17;;;;;;;;;;;2.80;99.90;;;-0.12;91.55;96199.41;10361504;28;1887;-83
2021/01/18 02:06:19;;;;;;;;;;;2.30;99.90;;;-0.09;91.88;96191.06;10361213;28;1892;-84
2021/01/18 02:11:22;;;;;;;;;;;1.00;99.90;;;-0.11;91.44;96197.59;10330769;28;2019;-83
2021/01/18 02:16:23;;;;;;;;;;;1.50;99.90;;;-0.13;91.49;96189.84;10328689;28;2713;-83
2021/01/18 02:21:25;;;;;;;;;;;0.90;99.90;;;-0.15;91.83;96196.34;10333289;28;2346;-84
2021/01/18 02:26:27;;;;;;;;;;;2.40;99.90;;;-0.14;91.91;96197.97;10330738;28;2098;-84
2021/01/18 02:31:28;;;;;;;;;;;0.90;99.90;;;-0.11;91.91;96198.41;10344428;28;2483;-83
2021/01/18 02:36:30;;;;;;;;;;;0.90;99.90;;;-0.08;92.01;96192.72;10348497;28;2150;-82
2021/01/18 02:41:32;;;;;;;;;;;2.30;99.90;;;-0.10;91.79;96205.31;10331529;28;1942;-83
2021/01/18 02:46:34;;;;;;;;;;;3.40;99.90;;;-0.11;91.94;96201.03;10336678;28;2182;-82
2021/01/18 02:51:36;;;;;;;;;;;1.00;99.90;;;-0.06;91.92;96203.09;10335798;28;2450;-82
2021/01/18 02:56:38;;;;;;;;;;;1.00;99.90;;;-0.09;91.54;96204.28;10350194;28;2046;-82
2021/01/18 03:01:39;;;;;;;;;;;1.00;99.90;;;-0.12;91.67;96202.06;10330974;28;2366;-83
2021/01/18 03:06:45;;;;;;;;;;;1.00;99.90;;;-0.09;91.91;96206.94;10348556;28;2458;-84
2021/01/18 03:11:47;;;;;;;;;;;1.80;99.90;;;-0.11;91.83;96203.69;10334744;28;1874;-81
2021/01/18 03:16:49;;;;;;;;;;;1.00;99.90;;;-0.08;91.83;96207.75;10368399;28;2424;-82
2021/01/18 03:21:51;;;;;;;;;;;1.50;99.90;;;-0.07;91.46;96215.47;10330834;28;2431;-81
2021/01/18 03:26:53;;;;;;;;;;;1.00;99.90;;;-0.07;91.51;96217.31;10341915;28;2111;-81
2021/01/18 03:31:55;;;;;;;;;;;1.00;99.90;;;-0.07;91.11;96215.47;10340288;28;2424;-83
2021/01/18 03:36:57;;;;;;;;;;;3.00;99.90;;;-0.07;90.71;96207.53;10345206;28;1814;-83
2021/01/18 03:41:59;;;;;;;;;;;1.40;99.90;;;-0.06;90.65;96203.91;10340912;28;2343;-82
2021/01/18 03:47:04;;;;;;;;;;;1.60;99.90;;;-0.05;90.76;96204.72;10343776;28;2405;-82
2021/01/18 03:52:05;;;;;;;;;;;1.00;99.90;;;-0.01;90.55;96212.03;10345740;28;2422;-82
2021/01/18 03:57:07;;;;;;;;;;;2.00;99.90;;;0.02;90.11;96216.16;10348076;28;2172;-82
2021/01/18 04:02:09;;;;;;;;;;;2.10;99.90;;;0.04;90.10;96215.94;10348844;28;2691;-83
2021/01/18 04:07:11;;;;;;;;;;;1.10;99.90;;;0.07;90.04;96211.09;10333532;28;2691;-81
2021/01/18 04:12:13;;;;;;;;;;;1.10;99.90;;;0.06;90.23;96216.53;10330243;28;1890;-82
2021/01/18 04:17:15;;;;;;;;;;;1.10;99.90;;;0.10;90.00;96229.19;10344365;28;1920;-79
2021/01/18 04:22:18;;;;;;;;;;;2.30;99.90;;;0.05;90.15;96228.13;10327856;28;1954;-84
2021/01/18 04:27:20;;;;;;;;;;;1.10;99.90;;;0.03;90.12;96224.88;10332201;28;1831;-83
2021/01/18 04:32:22;;;;;;;;;;;1.10;99.90;;;0.08;89.84;96228.56;10339079;28;1897;-83
2021/01/18 04:37:24;;;;;;;;;;;1.10;99.90;;;0.06;90.20;96227.13;10344374;28;2382;-83
2021/01/18 04:42:26;;;;;;;;;;;2.50;99.90;;;0.08;89.75;96235.69;10349081;28;2437;-82
2021/01/18 04:47:28;;;;;;;;;;;1.10;99.90;;;0.05;90.09;96222.84;10328762;28;1807;-81
2021/01/18 04:52:30;;;;;;;;;;;1.10;99.90;;;0.02;90.24;96217.97;10346283;28;2394;-83
2021/01/18 04:57:31;;;;;;;;;;;2.00;99.90;;;0.02;90.37;96223.25;10324136;28;2381;-83
2021/01/18 05:02:33;;;;;;;;;;;1.10;99.90;;;0.01;90.03;96221.63;10354292;28;2070;-85
2021/01/18 05:07:35;;;;;;;;;;;1.10;99.90;;;-0.05;91.05;96233.81;10331301;28;2526;-83
2021/01/18 05:12:37;;;;;;;;;;;1.00;99.90;;;-0.11;91.42;96235.41;10344729;28;2557;-82
2021/01/18 05:17:39;;;;;;;;;;;1.80;99.90;;;-0.13;91.71;96240.03;10345378;28;2385;-83
2021/01/18 05:22:41;;;;;;;;;;;1.00;99.90;;;-0.19;91.80;96235.56;10322258;28;2454;-83
2021/01/18 05:27:42;;;;;;;;;;;2.60;99.90;;;-0.16;92.51;96251.00;10356140;28;1808;-82
2021/01/18 05:32:44;;;;;;;;;;;1.90;99.90;;;-0.15;92.10;96242.06;10353078;28;2477;-83
2021/01/18 05:37:46;;;;;;;;;;;0.90;99.90;;;-0.12;91.60;96244.34;10336018;28;1347;-83
2021/01/18 05:42:48;;;;;;;;;;;0.90;99.90;;;-0.02;90.67;96255.34;10349903;28;2009;-83
2021/01/18 05:47:50;;;;;;;;;;;1.00;99.90;;;-0.01;90.78;96251.69;10348214;28;2232;-83
2021/01/18 05:52:51;;;;;;;;;;;1.00;99.90;;;0.03;90.66;96264.53;10336208;28;2429;-82
2021/01/18 05:57:53;;;;;;;;;;;2.00;99.90;;;0.15;89.79;96255.03;10327685;28;2549;-83
2021/01/18 06:02:55;;;;;;;;;;;1.10;99.90;;;0.11;89.63;96267.00;10340837;28;1933;-83
2021/01/18 06:07:57;;;;;;;;;;;1.10;99.90;;;0.08;89.74;96267.41;10345418;28;2465;-82
2021/01/18 06:12:58;;;;;;;;;;;3.00;99.90;;;0.07;90.33;96265.78;10341036;28;2389;-83
2021/01/18 06:18:00;;;;;;;;;;;1.10;99.90;;;0.07;90.29;96260.50;10343154;28;2368;-82
2021/01/18 06:23:05;;;;;;;;;;;0.50;99.90;;;0.11;89.96;96269.66;10357069;28;1961;-84
2021/01/18 06:28:06;;;;;;;;;;;1.20;99.90;;;0.11;89.53;96281.03;10334376;28;1995;-84
2021/01/18 06:33:08;;;;;;;;;;;1.10;99.90;;;0.14;89.66;96279.84;10352483;28;1502;-87
2021/01/18 06:38:10;;;;;;;;;;;1.20;99.90;;;0.40;89.38;96279.97;10355152;28;2351;-84
2021/01/18 06:43:12;;;;;;;;;;;1.90;99.90;;;0.26;88.83;96284.38;10371073;28;2303;-82
2021/01/18 06:48:14;;;;;;;;;;;2.20;99.90;;;0.12;89.42;96280.03;10353963;28;2517;-84
2021/01/18 06:53:16;;;;;;;;;;;1.20;99.90;;;0.16;89.28;96285.75;10346562;28;2437;-84
2021/01/18 06:58:17;;;;;;;;;;;1.80;99.90;;;0.18;89.71;96291.66;10343167;28;2431;-86
2021/01/18 07:03:19;;;;;;;;;;;1.20;99.90;;;0.18;89.43;96295.09;10370028;28;2521;-84
2021/01/18 07:08:21;;;;;;;;;;;1.20;99.90;;;0.17;89.44;96311.16;10354149;28;2450;-84
2021/01/18 07:13:23;;;;;;;;;;;1.30;99.90;;;0.21;89.48;96323.00;10367386;28;1805;-83
2021/01/18 07:18:25;;;;;;;;;;;2.30;99.90;;;0.17;89.46;96317.28;10363893;28;1394;-83
2021/01/18 07:23:27;;;;;;;;;;;2.60;99.90;;;0.14;89.60;96327.44;10333878;28;2338;-83
2021/01/18 07:28:30;;;;;;;;;;;2.30;99.90;;;0.19;89.55;96330.28;10342353;28;2038;-86
2021/01/18 07:33:32;;;;;;;;;;;1.20;99.90;;;0.14;90.16;96338.81;10348754;28;2401;-84
2021/01/18 07:38:37;;;;;;;;;;;1.20;99.90;;;0.07;90.58;96342.44;10359519;28;2031;-84
2021/01/18 07:43:39;;;;;;;;;;;1.20;99.90;;;0.04;91.72;96353.38;10334999;28;2718;-84
2021/01/18 07:48:56;;;;;;;;;;;-0.10;99.90;;;0.08;91.34;96355.47;10349675;28;1961;-84
2021/01/18 07:54:00;;;;;;;;;;;1.50;99.90;;;0.16;91.02;96362.41;10356666;28;1964;-85
2021/01/18 07:59:06;;;;;;;;;;;1.10;99.90;;;0.17;90.68;96361.41;10359123;28;1638;-83
2021/01/18 08:04:08;;;;;;;;;;;2.60;99.90;;;0.21;90.08;96363.47;10357590;28;1584;-84
2021/01/18 08:09:10;;;;;;;;;;;3.00;99.90;;;0.28;90.03;96374.09;10354357;28;2234;-84
2021/01/18 08:14:15;;;;;;;;;;;1.70;99.90;;;0.36;89.45;96381.84;10354147;28;1722;-85
2021/01/18 08:19:18;;;;;;;;;;;1.30;99.90;;;0.41;89.51;96387.38;10341466;28;2364;-82
2021/01/18 08:24:20;;;;;;;;;;;1.30;99.90;;;0.42;88.76;96388.19;10356632;28;2333;-84
2021/01/18 08:29:22;;;;;;;;;;;1.70;99.90;;;0.39;88.55;96397.34;10354274;28;1997;-83
2021/01/18 08:34:24;;;;;;;;;;;2.60;99.90;;;0.40;88.25;96393.69;10346949;28;1597;-84
2021/01/18 08:39:26;;;;;;;;;;;1.40;99.90;;;0.40;88.34;96411.38;10359749;28;1903;-83
2021/01/18 08:44:28;;;;;;;;;;;1.80;99.90;;;0.49;88.20;96399.63;10355095;28;2296;-85
2021/01/18 08:49:33;;;;;;;;;;;2.60;99.90;;;0.36;87.92;96421.53;10360766;28;1855;-84
2021/01/18 08:54:36;;;;;;;;;;;2.80;99.90;;;0.47;87.95;96413.06;10378395;28;1127;-83
2021/01/18 08:59:38;;;;;;;;;;;1.50;99.90;;;0.37;88.75;96417.88;10351632;28;1890;-85
2021/01/18 09:04:40;;;;;;;;;;;2.90;99.90;;;0.40;88.74;96425.44;10354229;28;1917;-83
2021/01/18 09:09:43;;;;;;;;;;;1.40;99.90;;;0.45;88.31;96427.50;10338951;28;1375;-84
2021/01/18 09:14:45;;;;;;;;;;;2.60;99.90;;;0.42;87.91;96426.03;10348310;28;2350;-83
2021/01/18 09:19:47;;;;;;;;;;;1.40;99.90;;;0.56;88.35;96428.75;10363678;28;2060;-86
2021/01/18 09:24:49;;;;;;;;;;;2.90;99.90;;;0.67;87.18;96433.53;10343317;28;2278;-85
2021/01/18 09:29:52;;;;;;;;;;;1.60;99.90;;;0.66;87.01;96434.53;10345372;28;2283;-84
2021/01/18 09:34:55;;;;;;;;;;;2.70;99.90;;;0.70;86.63;96433.13;10356671;28;2007;-82
2021/01/18 09:39:57;;;;;;;;;;;3.40;99.90;;;0.68;86.73;96435.16;10335782;28;1887;-84
2021/01/18 09:44:59;;;;;;;;;;;2.20;99.90;;;0.87;85.81;96442.38;10357869;28;2309;-84
2021/01/18 09:50:04;;;;;;;;;;;2.60;99.90;;;0.99;85.33;96443.44;10372938;28;2246;-85
2021/01/18 09:55:07;;;;;;;;;;;1.80;99.90;;;1.04;84.58;96443.69;10371535;28;2154;-82
2021/01/18 10:00:09;;;;;;;;;;;1.90;99.90;;;1.13;85.30;96438.22;10368446;28;2397;-84
2021/01/18 10:05:13;;;;;;;;;;;2.60;99.90;;;1.20;83.35;96433.75;10381663;28;2255;-83
2021/01/18 10:10:23;;;;;;;;;;;3.90;99.90;;;1.00;84.32;96444.25;10369670;28;2410;-82
2021/01/18 10:15:25;;;;;;;;;;;3.60;99.90;;;1.10;84.03;96438.63;10368973;28;1447;-85
2021/01/18 10:20:28;;;;;;;;;;;3.40;99.90;;;1.06;83.30;96433.69;10356914;28;1965;-82
2021/01/18 10:25:31;;;;;;;;;;;2.00;99.90;;;1.23;83.53;96433.38;10373676;28;2379;-84
2021/01/18 10:30:33;;;;;;;;;;;3.70;99.90;;;1.21;82.61;96443.31;10363839;28;2281;-84
2021/01/18 10:35:35;;;;;;;;;;;3.50;99.90;;;1.13;83.09;96443.50;10335046;28;1985;-83
2021/01/18 10:40:37;;;;;;;;;;;3.90;99.90;;;1.11;82.63;96438.41;10366279;28;2399;-82
2021/01/18 10:45:39;;;;;;;;;;;2.10;99.90;;;1.05;82.77;96442.66;10357902;28;1952;-85
2021/01/18 10:50:41;;;;;;;;;;;2.00;99.90;;;1.16;82.77;96448.41;10376663;28;2240;-85
2021/01/18 10:55:43;;;;;;;;;;;3.90;99.90;;;0.98;80.71;96435.72;10361260;28;2278;-85
2021/01/18 11:00:48;;;;;;;;;;;2.00;99.90;;;0.91;82.34;96440.97;10338590;28;1997;-85
2021/01/18 11:05:50;;;;;;;;;;;1.90;99.90;;;0.82;83.17;96440.31;10374623;28;1595;-84
2021/01/18 11:10:52;;;;;;;;;;;1.90;99.90;;;0.61;84.78;96437.75;10398470;28;1604;-85
2021/01/18 11:16:01;;;;;;;;;;;1.70;99.90;;;0.52;85.57;96425.72;10349077;28;2323;-85
2021/01/18 11:21:26;;;;;;;;;;;1.50;99.90;;;0.62;85.28;96420.88;10357775;28;1895;-84
2021/01/18 11:26:31;;;;;;;;;;;1.90;99.90;;;0.62;84.52;96417.41;10378111;28;2117;-88
2021/01/18 11:31:34;;;;;;;;;;;1.90;99.90;;;0.78;84.58;96415.25;10376910;28;1352;-86
2021/01/18 11:36:37;;;;;;;;;;;1.70;99.90;;;0.87;84.10;96426.50;10352015;28;1555;-85
2021/01/18 11:41:43;;;;;;;;;;;3.70;99.90;;;1.23;83.85;96405.03;10373176;28;2156;-82
2021/01/18 11:46:47;;;;;;;;;;;3.40;99.90;;;1.61;82.00;96400.03;10354053;28;2409;-83
2021/01/18 11:51:58;;;;;;;;;;;2.30;99.90;;;1.80;80.31;96394.97;10360256;28;2356;-83
2021/01/18 11:57:00;;;;;;;;;;;2.70;99.90;;;1.94;78.00;96388.63;10328144;28;2259;-82
2021/01/18 12:02:04;;;;;;;;;;;2.80;99.90;;;2.09;76.03;96386.56;10318580;28;2532;-81
2021/01/18 12:07:06;;;;;;;;;;;3.30;99.90;;;2.16;75.90;96389.22;10331736;28;2338;-83
2021/01/18 12:12:08;;;;;;;;;;;3.10;99.90;;;2.07;76.31;96375.38;10327171;28;2782;-81
2021/01/18 12:17:10;;;;;;;;;;;3.00;99.90;;;2.07;75.68;96378.03;10333386;28;2376;-82
2021/01/18 12:22:12;;;;;;;;;;;3.50;99.90;;;2.07;75.91;96385.97;10318619;28;2735;-81
2021/01/18 12:27:14;;;;;;;;;;;3.00;99.90;;;1.87;76.03;96388.63;10335752;28;2329;-82
2021/01/18 12:32:16;;;;;;;;;;;3.00;99.90;;;2.09;76.32;96383.13;10328554;28;2294;-82
2021/01/18 12:37:18;;;;;;;;;;;5.20;99.90;;;2.21;75.50;96378.81;10337514;28;2376;-81
2021/01/18 12:42:19;;;;;;;;;;;3.10;99.90;;;2.15;74.99;96383.09;10343889;28;2360;-81
2021/01/18 12:47:21;;;;;;;;;;;3.80;99.90;;;2.22;75.84;96375.13;10335631;28;2264;-87
2021/01/18 12:52:24;;;;;;;;;;;3.20;99.90;;;1.90;75.64;96379.44;10344358;28;2386;-87
2021/01/18 12:57:27;;;;;;;;;;;4.60;99.90;;;1.81;76.83;96375.38;10340845;28;2330;-84
2021/01/18 13:02:29;;;;;;;;;;;4.70;99.90;;;1.72;75.64;96373.94;10351820;28;2376;-83
2021/01/18 13:07:32;;;;;;;;;;;2.80;99.90;;;1.57;77.66;96372.28;10347042;28;2532;-82
2021/01/18 13:12:35;;;;;;;;;;;2.70;99.90;;;1.61;76.95;96378.84;10363361;28;2230;-83
2021/01/18 13:17:41;;;;;;;;;;;2.60;99.90;;;1.71;77.53;96377.59;10344937;28;2679;-83
2021/01/18 13:22:43;;;;;;;;;;;2.60;99.90;;;1.73;77.76;96375.59;10358721;28;2270;-81
2021/01/18 13:27:45;;;;;;;;;;;4.80;99.90;;;1.67;77.11;96376.41;10359094;28;2285;-82
2021/01/18 13:32:47;;;;;;;;;;;2.60;99.90;;;1.75;76.62;96379.66;10357052;28;1648;-81
2021/01/18 13:37:50;;;;;;;;;;;2.70;99.90;;;1.63;77.19;96383.94;10377915;28;2307;-81
2021/01/18 13:42:52;;;;;;;;;;;2.60;99.90;;;1.43;78.77;96389.19;10369562;28;1983;-83
2021/01/18 13:47:54;;;;;;;;;;;2.60;99.90;;;1.40;78.64;96380.81;10366886;28;2190;-82
2021/01/18 13:52:58;;;;;;;;;;;4.10;99.90;;;1.21;79.79;96393.00;10355453;28;1924;-84
2021/01/18 13:58:03;;;;;;;;;;;2.30;99.90;;;1.16;79.97;96398.91;10363652;28;2286;-84
2021/01/18 14:03:08;;;;;;;;;;;3.60;99.90;;;1.12;80.45;96399.50;10356340;28;2096;-84
2021/01/18 14:08:11;;;;;;;;;;;2.60;99.90;;;1.10;80.45;96407.66;10335463;28;2283;-85
2021/01/18 14:13:18;;;;;;;;;;;3.00;99.90;;;1.10;81.03;96404.19;10350653;28;2338;-85
2021/01/18 14:18:20;;;;;;;;;;;3.10;99.90;;;1.21;80.67;96403.59;10344784;28;2175;-86
2021/01/18 14:23:23;;;;;;;;;;;2.20;99.90;;;1.33;80.12;96404.66;10348893;28;2282;-85
2021/01/18 14:28:26;;;;;;;;;;;2.20;99.90;;;1.28;80.73;96415.06;10333175;28;2295;-85
2021/01/18 14:33:30;;;;;;;;;;;4.00;99.90;;;1.24;81.27;96411.97;10339812;28;2436;-83
2021/01/18 14:38:42;;;;;;;;;;;4.00;99.90;;;1.29;80.99;96416.69;10353445;28;2242;-85
2021/01/18 14:43:48;;;;;;;;;;;3.30;99.90;;;1.18;81.88;96415.41;10356078;28;2294;-84
2021/01/18 14:48:56;;;;;;;;;;;3.40;99.90;;;1.03;82.66;96412.94;10360042;28;2562;-82
2021/01/18 14:53:58;;;;;;;;;;;3.20;99.90;;;0.96;83.00;96400.69;10315075;28;2179;-83
2021/01/18 14:59:00;;;;;;;;;;;2.10;99.90;;;0.96;83.23;96412.09;10339622;28;2239;-83
2021/01/18 15:09:52;;;;;;;;;;;2.80;99.90;;;0.95;83.78;96406.97;10343535;28;2662;-81
2021/01/18 15:14:54;;;;;;;;;;;3.00;99.90;;;0.94;83.32;96402.69;10344981;28;2112;-83
2021/01/18 15:19:55;;;;;;;;;;;3.70;99.90;;;0.84;83.35;96391.69;10345003;28;2258;-83
2021/01/18 15:24:58;;;;;;;;;;;1.90;99.90;;;0.76;83.92;96384.69;10362428;28;1695;-82
2021/01/18 15:30:00;;;;;;;;;;;2.20;99.90;;;0.69;83.89;96391.78;10360768;28;1853;-81
2021/01/18 15:35:06;;;;;;;;;;;1.80;99.90;;;0.66;83.43;96390.38;10363682;28;1817;-82
2021/01/18 15:40:10;;;;;;;;;;;1.80;99.90;;;0.63;83.44;96388.09;10389455;28;2163;-82
2021/01/18 15:45:14;;;;;;;;;;;3.00;99.90;;;0.59;83.46;96389.53;10344318;28;2437;-82
2021/01/18 15:50:16;;;;;;;;;;;1.80;99.90;;;0.58;83.34;96392.38;10353464;28;2071;-80
2021/01/18 15:55:18;;;;;;;;;;;1.70;99.90;;;0.53;83.74;96396.41;10363160;28;2314;-83
2021/01/18 16:00:20;;;;;;;;;;;4.00;99.90;;;0.50;83.16;96394.13;10339065;28;2318;-81
2021/01/18 16:05:25;;;;;;;;;;;2.60;99.90;;;0.52;84.24;96393.97;10355209;28;2041;-86
2021/01/18 16:10:33;;;;;;;;;;;2.90;99.90;;;0.51;83.52;96401.09;10356862;28;1937;-84
2021/01/18 16:15:35;;;;;;;;;;;1.60;99.90;;;0.46;83.41;96406.13;10323177;28;2306;-84
2021/01/18 16:20:39;;;;;;;;;;;2.10;99.90;;;0.46;83.63;96400.84;10345031;28;1979;-84
2021/01/18 16:25:41;;;;;;;;;;;1.50;99.90;;;0.46;83.47;96395.56;10349540;28;2075;-83
2021/01/18 16:30:43;;;;;;;;;;;4.20;99.90;;;0.49;82.97;96389.88;10355606;28;2467;-85
2021/01/18 16:35:46;;;;;;;;;;;2.50;99.90;;;0.49;82.84;96384.56;10372807;28;3919;-83
2021/01/18 16:40:48;;;;;;;;;;;2.40;99.90;;;0.48;82.84;96380.31;10357278;28;1895;-83
2021/01/18 16:51:07;;;;;;;;;;;1.60;99.90;;;0.46;82.72;96389.44;10351649;28;2318;-82
2021/01/18 16:56:10;;;;;;;;;;;1.60;99.90;;;0.44;82.39;96386.97;10349869;28;2313;-85
2021/01/18 17:01:12;;;;;;;;;;;2.30;99.90;;;0.43;81.57;96392.47;10329771;28;2400;-84
2021/01/18 17:06:15;;;;;;;;;;;1.50;99.90;;;0.44;82.13;96397.56;10329229;28;2211;-85
2021/01/18 17:11:17;;;;;;;;;;;2.10;99.90;;;0.44;82.48;96397.56;10326486;28;1980;-84
2021/01/18 17:16:22;;;;;;;;;;;3.70;99.90;;;0.43;81.97;96395.13;10329184;28;3932;-83
2021/01/18 17:21:26;;;;;;;;;;;2.20;99.90;;;0.44;82.42;96402.84;10325387;28;3462;-83
2021/01/18 17:26:28;;;;;;;;;;;3.30;99.90;;;0.49;82.20;96396.97;10339184;28;2369;-85
2021/01/18 17:31:45;;;;;;;;;;;1.60;99.90;;;0.45;82.11;96399.22;10336315;28;3364;-86
2021/01/18 17:36:51;;;;;;;;;;;1.60;99.90;;;0.41;82.46;96403.25;10332176;28;2515;-83
2021/01/18 17:41:55;;;;;;;;;;;2.80;99.90;;;0.42;81.79;96399.59;10339964;28;2428;-86
2021/01/18 17:46:57;;;;;;;;;;;2.40;99.90;;;0.43;81.94;96400.41;10334319;28;2399;-83
2021/01/18 17:51:59;;;;;;;;;;;2.40;99.90;;;0.44;81.42;96396.75;10334265;28;2003;-85
2021/01/18 17:57:03;;;;;;;;;;;1.50;99.90;;;0.46;81.16;96395.56;10338347;28;1770;-87
2021/01/18 18:02:12;;;;;;;;;;;1.60;99.90;;;0.48;81.59;96400.66;10355826;28;2373;-87
2021/01/18 18:07:20;;;;;;;;;;;2.90;99.90;;;0.42;81.80;96409.34;10343918;28;2321;-85
2021/01/18 18:12:25;;;;;;;;;;;1.60;99.90;;;0.42;81.85;96410.16;10356353;28;1423;-85
2021/01/18 18:17:31;;;;;;;;;;;3.30;99.90;;;0.39;81.02;96404.47;10356251;28;2411;-84
2021/01/18 18:22:34;;;;;;;;;;;2.50;99.90;;;0.39;80.89;96405.28;10346934;28;1895;-86
2021/01/18 18:27:36;;;;;;;;;;;2.70;99.90;;;0.41;81.20;96407.72;10330296;28;1885;-84
2021/01/18 18:32:38;;;;;;;;;;;2.20;99.90;;;0.40;80.59;96401.63;10356369;28;1202;-84
2021/01/18 18:37:43;;;;;;;;;;;1.50;99.90;;;0.35;80.87;96398.75;10354828;28;2270;-80
2021/01/18 18:42:45;;;;;;;;;;;1.50;99.90;;;0.35;80.86;96414.59;10336941;28;2173;-82
2021/01/18 18:47:53;;;;;;;;;;;1.40;99.90;;;0.35;81.03;96409.31;10353089;28;2297;-83
2021/01/18 18:52:57;;;;;;;;;;;1.30;99.90;;;0.36;81.59;96404.84;10350951;28;2471;-85
2021/01/18 18:57:59;;;;;;;;;;;2.20;99.90;;;0.38;80.93;96411.59;10356373;28;2341;-83
2021/01/18 19:03:04;;;;;;;;;;;1.80;99.90;;;0.36;81.24;96410.94;10362772;28;2380;-84
2021/01/18 19:08:06;;;;;;;;;;;1.40;99.90;;;0.35;81.39;96406.66;10373162;28;2387;-83
2021/01/18 19:13:08;;;;;;;;;;;3.00;99.90;;;0.32;81.38;96408.88;10347147;28;2008;-85
2021/01/18 19:18:11;;;;;;;;;;;1.60;99.90;;;0.33;80.76;96400.78;10352977;28;2245;-83
2021/01/18 19:23:12;;;;;;;;;;;1.40;99.90;;;0.36;81.18;96410.94;10336996;28;2329;-87
2021/01/18 19:28:14;;;;;;;;;;;1.40;99.90;;;0.33;81.32;96408.72;10333117;28;2116;-84
2021/01/18 19:33:16;;;;;;;;;;;1.80;99.90;;;0.34;81.36;96407.69;10336768;28;2002;-83
2021/01/18 19:38:19;;;;;;;;;;;3.50;99.90;;;0.31;81.09;96407.25;10333751;28;1882;-85
2021/01/18 19:43:21;;;;;;;;;;;2.80;99.90;;;0.28;81.21;96411.09;10349540;28;1910;-83
2021/01/18 19:48:25;;;;;;;;;;;1.30;99.90;;;0.25;80.66;96409.69;10352282;28;1296;-84
2021/01/18 19:53:30;;;;;;;;;;;1.20;99.90;;;0.32;80.33;96404.44;10349447;28;2340;-83
2021/01/18 19:58:32;;;;;;;;;;;2.70;99.90;;;0.25;80.13;96408.84;10333882;28;2493;-85
2021/01/18 20:03:37;;;;;;;;;;;1.30;99.90;;;0.22;80.26;96386.25;10350371;28;1891;-84
2021/01/18 20:08:39;;;;;;;;;;;1.30;99.90;;;0.26;79.85;96410.50;10338997;28;1737;-84
2021/01/18 20:13:41;;;;;;;;;;;1.20;99.90;;;0.26;79.30;96411.31;10345416;28;1918;-85
2021/01/18 20:18:44;;;;;;;;;;;4.40;99.90;;;0.25;79.79;96403.53;10371126;28;2459;-85
2021/01/18 20:23:47;;;;;;;;;;;1.40;99.90;;;0.22;79.54;96409.22;10330169;28;1915;-84
2021/01/18 20:28:49;;;;;;;;;;;1.30;99.90;;;0.20;79.27;96412.06;10344976;28;2371;-85
2021/01/18 20:33:56;;;;;;;;;;;1.70;99.90;;;0.20;80.05;96416.56;10339543;28;2807;-86
2021/01/18 20:39:00;;;;;;;;;;;1.20;99.90;;;2.77;71.09;96406.69;10325128;28;2122;-85
2021/01/18 20:44:06;;;;;;;;;;;3.80;99.90;;;1.13;75.40;96406.44;10363622;28;2029;-88
2021/01/18 20:49:17;;;;;;;;;;;2.60;99.90;;;0.70;77.06;96406.66;10336985;28;1756;-85
2021/01/18 20:54:22;;;;;;;;;;;3.20;99.90;;;0.36;77.36;96410.94;10366316;28;2110;-86
2021/01/18 20:59:30;;;;;;;;;;;1.70;99.90;;;0.18;77.81;96416.72;10372490;28;1508;-85
2021/01/18 21:04:32;;;;;;;;;;;1.80;99.90;;;0.17;77.53;96416.91;10354778;28;2768;-84
2021/01/18 21:09:34;;;;;;;;;;;1.10;99.90;;;0.13;78.19;96410.41;10336287;28;2196;-85
2021/01/18 21:14:38;;;;;;;;;;;3.10;99.90;;;0.12;78.87;96411.38;10348120;28;1995;-83
2021/01/18 21:19:43;;;;;;;;;;;1.90;99.90;;;0.15;78.47;96403.09;10330360;28;4360;-86
2021/01/18 21:24:46;;;;;;;;;;;1.20;99.90;;;0.18;77.81;96400.03;10339482;28;2345;-84
2021/01/18 21:29:48;;;;;;;;;;;1.10;99.90;;;0.17;77.54;96396.59;10352132;28;2736;-83
2021/01/18 21:34:52;;;;;;;;;;;2.10;99.90;;;0.19;77.10;96399.03;10358371;28;1297;-86
2021/01/18 21:39:55;;;;;;;;;;;1.30;99.90;;;0.17;76.61;96409.00;10364940;28;2057;-86
2021/01/18 21:45:00;;;;;;;;;;;1.20;99.90;;;0.08;77.52;96403.03;10370450;28;1895;-85
2021/01/18 21:50:05;;;;;;;;;;;3.10;99.90;;;0.09;76.66;96404.66;10356953;28;1615;-83
2021/01/18 21:55:07;;;;;;;;;;;2.20;99.90;;;0.02;76.64;96408.28;10362728;28;1289;-86
2021/01/18 22:00:10;;;;;;;;;;;1.20;99.90;;;0.03;76.91;96399.34;10342422;28;2073;-85
2021/01/18 22:05:13;;;;;;;;;;;2.90;99.90;;;-0.02;77.15;96406.00;10345028;28;1906;-84
2021/01/18 22:10:16;;;;;;;;;;;1.80;99.90;;;0.00;77.32;96408.47;10374335;28;2177;-86
2021/01/18 22:15:22;;;;;;;;;;;1.00;99.90;;;-0.06;77.28;96396.84;10385707;28;2266;-87
2021/01/18 22:20:24;;;;;;;;;;;3.30;99.90;;;-0.07;77.75;96403.13;10368285;28;2522;-83
2021/01/18 22:25:27;;;;;;;;;;;2.40;99.90;;;-0.08;78.45;96388.28;10362419;28;2088;-84
2021/01/18 22:30:31;;;;;;;;;;;1.90;99.90;;;-0.11;78.36;96399.25;10376305;28;1312;-85
2021/01/18 22:35:33;;;;;;;;;;;2.10;99.90;;;-0.14;79.10;96391.69;10372974;28;2300;-86
2021/01/18 22:40:36;;;;;;;;;;;0.90;99.90;;;-0.16;78.53;96395.53;10341737;28;2372;-85
2021/01/18 22:45:38;;;;;;;;;;;2.10;99.90;;;-0.17;78.48;96399.19;10341638;28;2164;-84
2021/01/18 22:50:40;;;;;;;;;;;1.00;99.90;;;-0.19;78.90;96401.19;10315667;28;2333;-84
2021/01/18 22:55:44;;;;;;;;;;;0.90;99.90;;;-0.29;79.23;96397.06;10343399;28;1365;-85
2021/01/18 23:00:49;;;;;;;;;;;0.80;99.90;;;-0.39;79.44;96401.00;10369891;28;2035;-87
2021/01/18 23:05:52;;;;;;;;;;;1.50;99.90;;;-0.50;80.73;96402.34;10362033;28;2539;-85
2021/01/18 23:10:54;;;;;;;;;;;2.40;99.90;;;-0.54;80.97;96398.44;10350113;28;1961;-85
2021/01/18 23:15:56;;;;;;;;;;;1.90;99.90;;;-0.59;80.72;96393.72;10351922;28;1103;-84
2021/01/18 23:21:03;;;;;;;;;;;0.60;99.90;;;-0.51;80.70;96389.31;10333208;28;1989;-84
2021/01/18 23:26:06;;;;;;;;;;;1.70;99.90;;;-0.55;81.22;96384.44;10340429;28;2180;-84
2021/01/18 23:31:08;;;;;;;;;;;1.00;99.90;;;-0.55;80.64;96373.88;10326618;28;1274;-83
2021/01/18 23:36:10;;;;;;;;;;;0.60;99.90;;;-0.56;80.31;96363.50;10331209;28;1399;-84
2021/01/18 23:41:13;;;;;;;;;;;1.40;99.90;;;-0.67;80.50;96350.78;10334745;28;1989;-85
2021/01/18 23:46:15;;;;;;;;;;;1.60;99.90;;;-0.71;81.03;96350.34;10327124;28;2356;-86
2021/01/18 23:51:18;;;;;;;;;;;0.40;99.90;;;-0.76;80.65;96339.56;10355897;28;1652;-86